This is the latest recevied weather packets stored in our database for station/object KC9ZAR-13. If no packets are shown the sender has not sent any weather packets the latest 10 day(s).
| Time | Temp. | Humidity | Pressure | Rain* | Wind** | Luminosity | Snow |
|---|---|---|---|---|---|---|---|
| 1777801805 | 2.78° C | 89% | 1017.5 hPa | 0 mm | - | 0 W/m² | - |
| 1777801205 | 2.78° C | 89% | 1017.5 hPa | 0 mm | - | 0 W/m² | - |
| 1777800305 | 2.78° C | 90% | 1017.3 hPa | 0 mm | - | 0 W/m² | - |
| 1777799105 | 2.78° C | 89% | 1017.5 hPa | 0 mm | - | 0 W/m² | - |
| 1777796705 | 2.78° C | 89% | 1017.4 hPa | 0 mm | - | 0 W/m² | - |
| 1777796105 | 3.33° C | 89% | 1017.3 hPa | 0 mm | - | 0 W/m² | - |
| 1777793705 | 3.33° C | 89% | 1017.3 hPa | 0 mm | - | 0 W/m² | - |
| 1777793405 | 3.33° C | 89% | 1017.3 hPa | 0 mm | - | 0 W/m² | - |
| 1777793105 | 3.33° C | 89% | 1017.2 hPa | 0 mm | - | 0 W/m² | - |
| 1777792805 | 3.33° C | 89% | 1017.3 hPa | 0 mm | - | 0 W/m² | - |
| 1777791005 | 3.33° C | 88% | 1017.4 hPa | 0 mm | - | 0 W/m² | - |
| 1777788905 | 3.89° C | 87% | 1017.5 hPa | 0 mm | - | 0 W/m² | - |
| 1777787405 | 3.89° C | 86% | 1017.7 hPa | 0 mm | - | 0 W/m² | - |
| 1777787104 | 3.89° C | 86% | 1017.7 hPa | 0 mm | - | 0 W/m² | - |
| 1777785905 | 3.89° C | 85% | 1017.6 hPa | 0 mm | - | 0 W/m² | - |
| 1777785305 | 3.89° C | 84% | 1017.7 hPa | 0 mm | - | 0 W/m² | - |
| 1777782905 | 4.44° C | 83% | 1017.6 hPa | 0 mm | - | 0 W/m² | - |
| 1777779605 | 5.56° C | 78% | 1017.5 hPa | 0 mm | - | 0 W/m² | - |
| 1777778105 | 6.11° C | 76% | 1017.5 hPa | 0 mm | - | 0 W/m² | - |
| 1777777804 | 6.11° C | 76% | 1017.5 hPa | 0 mm | - | 0 W/m² | - |
| 1777776305 | 6.67° C | 73% | 1017.4 hPa | 0 mm | - | 0 W/m² | - |
| 1777776005 | 6.67° C | 72% | 1017.3 hPa | 0 mm | - | 0 W/m² | - |
| 1777771205 | 10° C | 56% | 1016.6 hPa | 0 mm | - | 0 W/m² | - |
| 1777770904 | 10.56° C | 54% | 1016.5 hPa | 0 mm | - | 0 W/m² | - |
| 1777768205 | 12.22° C | 45% | 1016.2 hPa | 0 mm | - | 0 W/m² | - |
* Rain latest hour (hover to see other rain measurements)
** Current wind speed in m/s (hover to see current wind gust speed)